KPWM

Portland International Jetport Airport

Portland, Maine, USA
METAR KPWM 280051Z 07008KT 10SM BKN013 BKN055 OVC070 09/07 A3025 RMK AO2 SLP242 T00940067
Observed Flight Rules
May-28 @ 00:51 UTC (14 minutes ago) Marginal Visual Flight Rules
Wind Visibility Clouds
70° at 8 knots 10 miles
  • Broken at 1,300' AGL
  • Broken at 5,500' AGL
  • Overcast at 7,000' AGL
Temperatures Readings
Current 9°C / 48°F
Dewpoint 7°C / 45°F
Humidity 87%
Altimeter 30.25" Hg
Pressure 1024.2 hPa
Elevation 15
METAR KPWM 280051Z 07008KT 10SM BKN013 BKN055 OVC070 09/07 A3025 RMK AO2 SLP242 T00940067
Observed Flight Rules
May-28 @ 00:51 UTC
(14 minutes ago)
MVFR
Wind Visibility
70° at 8 knots 10 miles
Clouds
  • Broken at 1,300' AGL
  • Broken at 5,500' AGL
  • Overcast at 7,000' AGL
Temperature Dewpoint
9°C / 48°F 7°C / 45°F
Humidity Altimeter Pressure
87% 30.25" Hg 1024.2 hPa